Time,TemperatureF,DewpointF,PressureIn,WindDirection,WindDirectionDegrees,WindSpeedMPH,WindSpeedGustMPH,Humidity,HourlyPrecipIn,Conditions,Clouds,dailyrainin,SolarRadiationWatts/m^2,SoftwareType,DateUTC
2013-11-19 00:42:00,56.0,32.0,30.19,ESE,107,3.0,7.0,40,-99.99,,,-99.99,0.000000,,2013-11-19 07:42:00,
2013-11-19 01:22:00,56.0,32.0,30.19,NE,43,3.0,4.0,39,-99.99,,,-99.99,0.000000,,2013-11-19 08:22:00,
2013-11-19 03:12:00,56.0,35.0,30.16,SSE,148,2.0,5.0,43,-99.99,,,-99.99,0.000000,,2013-11-19 10:12:00,
2013-11-19 03:43:00,55.0,33.0,30.16,East,99,6.0,9.0,43,-99.99,,,-99.99,0.000000,,2013-11-19 10:43:00,
2013-11-19 04:42:00,56.0,34.0,30.15,SSE,164,2.0,4.0,44,-99.99,,,-99.99,0.000000,,2013-11-19 11:42:00,
2013-11-19 05:42:00,54.0,34.0,30.14,ENE,66,3.0,6.0,45,-99.99,,,-99.99,0.000000,,2013-11-19 12:42:00,
2013-11-19 06:11:00,55.0,36.0,30.13,SSW,199,4.0,13.0,47,-99.99,,,-99.99,0.000000,,2013-11-19 13:11:00,
2013-11-19 06:21:00,55.0,36.0,30.13,SSW,199,4.0,13.0,47,-99.99,,,-99.99,0.000000,,2013-11-19 13:21:00,
2013-11-19 06:32:00,55.0,36.0,30.13,SSW,199,4.0,13.0,47,-99.99,,,-99.99,0.000000,,2013-11-19 13:32:00,
2013-11-19 06:52:00,55.0,37.0,30.13,West,266,5.0,8.0,50,-99.99,,,-99.99,0.700000,,2013-11-19 13:52:00,
2013-11-19 07:00:00,54.0,36.0,30.14,West,281,6.0,10.0,51,-99.99,,,-99.99,21.620001,,2013-11-19 14:00:00,
2013-11-19 07:11:00,52.0,36.0,30.14,WNW,290,7.0,13.0,53,-99.99,,,-99.99,4.180000,,2013-11-19 14:11:00,
2013-11-19 07:42:00,54.0,36.0,30.14,West,281,6.0,10.0,51,-99.99,,,-99.99,21.620001,,2013-11-19 14:42:00,
2013-11-19 07:52:00,54.0,36.0,30.14,West,281,6.0,10.0,51,-99.99,,,-99.99,21.620001,,2013-11-19 14:52:00,
2013-11-19 08:43:00,55.0,37.0,30.14,West,266,8.0,13.0,50,-99.99,,,-99.99,221.750000,,2013-11-19 15:43:00,
2013-11-19 10:43:00,58.0,36.0,30.13,WSW,249,17.0,23.0,43,-99.99,,,-99.99,495.109985,,2013-11-19 17:43:00,
2013-11-19 11:12:00,59.0,36.0,30.12,WSW,249,20.0,27.0,42,-99.99,,,-99.99,483.950012,,2013-11-19 18:12:00,
2013-11-19 11:22:00,59.0,36.0,30.11,WSW,255,23.0,29.0,42,-99.99,,,-99.99,487.440002,,2013-11-19 18:22:00,
2013-11-19 11:32:00,59.0,36.0,30.11,WSW,255,23.0,29.0,42,-99.99,,,-99.99,487.440002,,2013-11-19 18:32:00,
2013-11-19 12:42:00,60.0,36.0,30.07,WSW,254,23.0,28.0,40,-99.99,,,-99.99,594.130005,,2013-11-19 19:42:00,
2013-11-19 12:52:00,61.0,35.0,30.06,WSW,249,24.0,33.0,37,-99.99,,,-99.99,569.719971,,2013-11-19 19:52:00,
2013-11-19 13:02:00,61.0,35.0,30.06,WSW,249,24.0,33.0,37,-99.99,,,-99.99,569.719971,,2013-11-19 20:02:00,
2013-11-19 13:42:00,61.0,32.0,30.04,WSW,254,25.0,36.0,34,-99.99,,,-99.99,492.320007,,2013-11-19 20:42:00,
2013-11-19 14:43:00,62.0,35.0,30.01,WSW,248,25.0,33.0,37,-99.99,,,-99.99,403.760010,,2013-11-19 21:43:00,
2013-11-19 15:23:00,61.0,36.0,30.00,WSW,250,26.0,35.0,38,-99.99,,,-99.99,227.330002,,2013-11-19 22:23:00,
2013-11-19 15:42:00,62.0,34.0,30.00,WSW,256,27.0,34.0,35,-99.99,,,-99.99,233.610001,,2013-11-19 22:42:00,
2013-11-19 16:43:00,62.0,35.0,29.99,WSW,255,27.0,34.0,36,-99.99,,,-99.99,125.519997,,2013-11-19 23:43:00,
2013-11-19 17:21:00,60.0,34.0,29.99,WSW,253,29.0,36.0,37,-99.99,,,-99.99,12.550000,,2013-11-20 00:21:00,
2013-11-19 17:42:00,59.0,34.0,29.99,WSW,256,27.0,36.0,39,-99.99,,,-99.99,3.490000,,2013-11-20 00:42:00,
2013-11-19 17:52:00,58.0,34.0,29.99,WSW,256,25.0,30.0,40,-99.99,,,-99.99,0.000000,,2013-11-20 00:52:00,
2013-11-19 18:01:00,58.0,34.0,29.99,WSW,256,25.0,30.0,40,-99.99,,,-99.99,0.000000,,2013-11-20 01:01:00,
2013-11-19 20:44:00,57.0,34.0,30.01,West,265,17.0,21.0,42,-99.99,,,-99.99,0.000000,,2013-11-20 03:44:00,
2013-11-19 20:54:00,57.0,35.0,30.01,West,260,18.0,22.0,42,-99.99,,,-99.99,0.000000,,2013-11-20 03:54:00,
2013-11-19 21:03:00,57.0,35.0,30.01,West,260,18.0,22.0,42,-99.99,,,-99.99,0.000000,,2013-11-20 04:03:00,
2013-11-19 21:43:00,56.0,35.0,30.01,West,268,15.0,20.0,43,-99.99,,,-99.99,0.000000,,2013-11-20 04:43:00,
2013-11-19 22:43:00,58.0,35.0,30.01,SW,229,16.0,21.0,41,-99.99,,,-99.99,0.000000,,2013-11-20 05:43:00,
2013-11-19 23:12:00,57.0,35.0,30.01,WSW,248,13.0,18.0,43,-99.99,,,-99.99,0.000000,,2013-11-20 06:12:00,
2013-11-19 23:42:00,56.0,36.0,30.01,West,267,17.0,21.0,46,-99.99,,,-99.99,0.000000,,2013-11-20 06:42:00,
2013-11-19 23:52:00,56.0,35.0,30.01,WSW,253,17.0,21.0,45,-99.99,,,-99.99,0.000000,,2013-11-20 06:52:00,